Time;durP1;ratioP1;P1;durP2;ratioP2;P2;SDS_P1;SDS_P2;PMS_P1;PMS_P2;Temp;Humidity;BMP_temperature;BMP_pressure;BME280_temperature;BME280_humidity;BME280_pressure;Samples;Min_cycle;Max_cycle;Signal;HPM_P1;HPM_P2
2021/10/20 00:01:40;;;;;;;1.73;0.60;;;21.40;88.10;;;;;;5064258;28;20035;-70
2021/10/20 00:04:07;;;;;;;1.27;0.60;;;21.60;85.40;;;;;;5066681;28;20131;-67
2021/10/20 00:06:34;;;;;;;0.50;0.30;;;21.80;81.10;;;;;;5063769;28;20021;-73
2021/10/20 00:09:02;;;;;;;1.33;0.65;;;21.70;78.80;;;;;;5064901;28;20036;-65
2021/10/20 00:11:29;;;;;;;4.05;1.13;;;21.50;76.90;;;;;;5067590;28;20472;-68
2021/10/20 00:13:56;;;;;;;2.00;0.80;;;21.30;83.10;;;;;;5063925;28;20013;-67
2021/10/20 00:16:24;;;;;;;2.17;0.80;;;21.20;85.30;;;;;;5064710;28;20119;-70
2021/10/20 00:18:51;;;;;;;2.47;0.75;;;21.70;85.30;;;;;;5064887;28;20029;-67
2021/10/20 00:21:25;;;;;;;1.65;0.50;;;22.00;82.10;;;;;;5059420;28;20024;-68
2021/10/20 00:23:52;;;;;;;1.75;0.70;;;22.20;79.90;;;;;;5056764;28;20024;-68
2021/10/20 00:26:19;;;;;;;1.08;0.57;;;21.90;79.40;;;;;;5056438;28;20017;-69
2021/10/20 00:28:49;;;;;;;0.80;0.50;;;21.70;80.20;;;;;;5060120;28;21276;-69
2021/10/20 00:31:16;;;;;;;1.00;0.50;;;21.80;80.60;;;;;;5066157;28;20388;-70
2021/10/20 00:33:43;;;;;;;2.75;0.82;;;22.20;78.70;;;;;;5062022;28;20028;-68
2021/10/20 00:36:11;;;;;;;2.83;0.60;;;22.00;79.20;;;;;;5063164;28;20434;-69
2021/10/20 00:38:39;;;;;;;0.90;0.40;;;22.20;77.30;;;;;;5059560;28;20025;-66
2021/10/20 00:41:06;;;;;;;3.38;0.70;;;22.20;73.70;;;;;;5058976;28;20059;-65
2021/10/20 00:43:33;;;;;;;1.23;0.60;;;22.60;73.40;;;;;;5056325;28;20029;-69
2021/10/20 00:46:00;;;;;;;2.92;1.08;;;23.10;74.10;;;;;;5056815;28;20475;-73
2021/10/20 00:48:27;;;;;;;1.90;1.00;;;23.10;72.20;;;;;;5058406;28;20571;-70
2021/10/20 00:50:54;;;;;;;1.98;0.52;;;22.50;72.40;;;;;;5058045;28;20037;-72
2021/10/20 00:53:21;;;;;;;2.97;1.10;;;22.10;73.50;;;;;;5090365;22;20066;-67
2021/10/20 00:55:48;;;;;;;3.72;1.10;;;22.00;76.80;;;;;;5062571;28;20021;-66
2021/10/20 00:58:16;;;;;;;3.20;0.73;;;22.20;76.20;;;;;;5064491;28;20115;-72
2021/10/20 01:00:43;;;;;;;2.45;0.63;;;22.80;74.50;;;;;;5063458;28;20032;-69
2021/10/20 01:03:10;;;;;;;2.45;0.60;;;23.30;71.70;;;;;;5065014;28;20017;-69
2021/10/20 01:05:38;;;;;;;4.35;2.75;;;23.20;71.30;;;;;;5064022;28;20029;-74
2021/10/20 01:08:06;;;;;;;2.30;0.90;;;22.80;72.70;;;;;;5063069;28;20483;-73
2021/10/20 01:10:33;;;;;;;0.95;0.60;;;22.50;75.20;;;;;;5064134;28;20465;-71
2021/10/20 01:13:00;;;;;;;1.65;0.73;;;22.20;80.10;;;;;;5064388;28;20039;-66
2021/10/20 01:15:28;;;;;;;1.38;0.75;;;21.90;83.10;;;;;;5064094;28;20021;-71
2021/10/20 01:17:55;;;;;;;2.95;1.00;;;21.60;85.50;;;;;;5064748;28;20028;-70
2021/10/20 01:20:28;;;;;;;2.25;0.60;;;21.20;88.80;;;;;;5058646;28;20035;-70
2021/10/20 01:23:00;;;;;;;3.03;1.10;;;20.60;91.40;;;;;;5062233;28;20052;-69
2021/10/20 01:25:27;;;;;;;2.72;0.80;;;20.10;93.90;;;;;;5062929;28;20040;-71
2021/10/20 01:27:55;;;;;;;4.30;1.00;;;19.90;96.00;;;;;;5062412;28;20052;-68
2021/10/20 01:30:22;;;;;;;1.75;0.60;;;19.70;97.50;;;;;;5061642;28;20154;-70
2021/10/20 01:32:49;;;;;;;3.25;1.10;;;19.80;99.70;;;;;;5063383;28;20111;-67
2021/10/20 01:35:16;;;;;;;3.22;1.08;;;19.70;99.90;;;;;;5061827;28;20394;-67
2021/10/20 01:37:42;;;;;;;3.28;0.73;;;19.70;99.90;;;;;;5065377;28;20036;-69
2021/10/20 01:40:11;;;;;;;2.05;0.70;;;19.80;99.90;;;;;;5062737;28;20021;-66
2021/10/20 01:42:39;;;;;;;1.55;0.77;;;19.80;99.90;;;;;;5060916;28;20107;-67
2021/10/20 01:45:13;;;;;;;3.40;1.02;;;19.80;99.90;;;;;;5061538;28;20909;-69
2021/10/20 01:47:41;;;;;;;1.58;0.70;;;19.80;99.90;;;;;;5062997;28;20020;-66
2021/10/20 01:50:12;;;;;;;2.67;1.08;;;19.80;99.90;;;;;;5067268;28;20021;-66
2021/10/20 01:52:41;;;;;;;4.47;1.17;;;19.80;99.90;;;;;;5064808;28;20029;-65
2021/10/20 01:55:13;;;;;;;3.25;1.00;;;19.80;99.90;;;;;;5064141;28;20036;-66
2021/10/20 01:57:40;;;;;;;2.13;0.88;;;20.00;97.60;;;;;;5067339;28;20137;-66
2021/10/20 02:00:08;;;;;;;3.55;0.82;;;20.40;98.20;;;;;;5069143;28;20168;-69
2021/10/20 02:02:35;;;;;;;2.15;0.60;;;20.60;99.50;;;;;;5068345;28;20024;-69
2021/10/20 02:05:03;;;;;;;2.17;0.80;;;21.10;97.20;;;;;;5065582;28;20285;-67
2021/10/20 02:07:30;;;;;;;2.13;0.82;;;21.00;96.30;;;;;;5065059;28;20043;-71
2021/10/20 02:09:57;;;;;;;3.17;0.80;;;21.70;95.60;;;;;;5067047;28;20105;-71
2021/10/20 02:12:24;;;;;;;2.08;0.80;;;22.60;94.00;;;;;;5066686;28;20025;-71
2021/10/20 02:14:50;;;;;;;4.00;0.88;;;23.50;92.20;;;;;;5061683;28;20124;-68
2021/10/20 02:17:17;;;;;;;1.00;0.45;;;24.10;87.90;;;;;;5065381;28;20107;-68
2021/10/20 02:19:44;;;;;;;3.75;0.82;;;24.80;83.70;;;;;;5065080;28;20025;-68
2021/10/20 02:22:11;;;;;;;2.53;1.00;;;25.40;77.80;;;;;;5065637;28;20052;-70
2021/10/20 02:24:38;;;;;;;2.40;0.70;;;25.00;70.80;;;;;;5068856;28;20538;-68
2021/10/20 02:27:05;;;;;;;2.83;1.23;;;24.70;70.00;;;;;;5069936;28;20033;-69
2021/10/20 02:29:32;;;;;;;1.45;1.10;;;24.20;68.70;;;;;;5067787;28;20017;-69
2021/10/20 02:32:04;;;;;;;2.80;1.40;;;24.00;69.00;;;;;;5068443;28;20097;-77
2021/10/20 02:34:31;;;;;;;2.35;0.95;;;23.60;70.50;;;;;;5070234;28;20039;-69
2021/10/20 02:36:58;;;;;;;2.25;0.80;;;23.10;72.10;;;;;;5069596;28;20639;-75
2021/10/20 02:39:29;;;;;;;4.30;1.42;;;22.80;73.30;;;;;;5070489;28;20127;-67
2021/10/20 02:41:55;;;;;;;3.10;0.60;;;23.30;72.60;;;;;;5070577;28;20013;-64
2021/10/20 02:44:22;;;;;;;1.95;0.60;;;24.10;68.60;;;;;;5071839;28;20482;-68
2021/10/20 02:46:49;;;;;;;2.50;0.60;;;24.90;63.40;;;;;;5072541;28;20796;-70
2021/10/20 02:49:16;;;;;;;1.98;0.60;;;25.50;56.10;;;;;;5067974;28;20048;-69
2021/10/20 02:51:43;;;;;;;3.33;0.60;;;25.60;54.10;;;;;;5067654;28;20032;-70
2021/10/20 02:54:10;;;;;;;1.60;0.55;;;26.20;55.80;;;;;;5067526;28;20048;-74
2021/10/20 02:56:37;;;;;;;3.90;0.80;;;26.20;52.30;;;;;;5072540;28;20043;-69
2021/10/20 02:59:04;;;;;;;2.30;0.80;;;25.70;54.30;;;;;;5072089;28;20025;-70
2021/10/20 03:01:31;;;;;;;2.95;0.90;;;24.70;55.70;;;;;;5071290;28;20028;-69
2021/10/20 03:03:58;;;;;;;1.85;1.23;;;23.90;60.90;;;;;;5072735;28;20112;-68
2021/10/20 03:06:25;;;;;;;2.85;0.68;;;23.50;61.70;;;;;;5072635;28;20056;-69
2021/10/20 03:08:52;;;;;;;2.47;0.88;;;23.20;63.20;;;;;;5072469;28;20020;-68
2021/10/20 03:11:19;;;;;;;1.33;0.60;;;24.10;63.00;;;;;;5067138;28;20048;-68
2021/10/20 03:13:46;;;;;;;3.17;0.82;;;25.00;59.30;;;;;;5069943;28;20107;-70
2021/10/20 03:16:13;;;;;;;3.85;0.80;;;25.60;58.70;;;;;;5071498;28;20410;-69
2021/10/20 03:18:40;;;;;;;0.98;0.50;;;25.20;56.30;;;;;;5068694;28;20397;-69
2021/10/20 03:21:07;;;;;;;1.65;0.88;;;24.40;58.80;;;;;;5071795;28;20111;-70
2021/10/20 03:23:34;;;;;;;2.53;0.57;;;24.60;57.50;;;;;;5071642;28;20100;-68
2021/10/20 03:26:01;;;;;;;2.15;0.75;;;24.80;59.20;;;;;;5072140;28;20548;-68
2021/10/20 03:28:27;;;;;;;1.65;0.47;;;24.50;59.50;;;;;;5070708;28;20032;-69
2021/10/20 03:30:54;;;;;;;3.85;0.80;;;23.80;62.00;;;;;;5071711;28;20016;-68
2021/10/20 03:33:21;;;;;;;2.45;0.90;;;23.40;62.50;;;;;;5071259;28;20029;-69
2021/10/20 03:35:48;;;;;;;3.33;1.33;;;23.10;62.80;;;;;;5071348;28;20062;-68
2021/10/20 03:38:15;;;;;;;2.10;0.90;;;23.60;64.10;;;;;;5066185;28;20036;-68
2021/10/20 03:40:42;;;;;;;4.97;1.17;;;24.10;62.10;;;;;;4710583;28;10000416;-68
2021/10/20 03:43:09;;;;;;;5.28;1.10;;;25.00;60.70;;;;;;5066398;28;20107;-68
2021/10/20 03:45:36;;;;;;;3.13;1.55;;;25.70;56.90;;;;;;5071453;28;20035;-68
2021/10/20 03:48:04;;;;;;;2.08;0.60;;;26.00;56.10;;;;;;5065455;28;20033;-69
2021/10/20 03:50:31;;;;;;;1.63;0.77;;;25.60;53.20;;;;;;5067847;28;20150;-69
2021/10/20 03:52:58;;;;;;;3.53;1.13;;;24.70;55.00;;;;;;5068286;28;20044;-69
2021/10/20 03:55:26;;;;;;;2.92;0.82;;;24.10;55.60;;;;;;5065700;28;20389;-69
2021/10/20 03:57:53;;;;;;;2.17;0.77;;;24.50;55.40;;;;;;5069627;28;20111;-71
2021/10/20 04:00:20;;;;;;;1.20;0.75;;;24.80;52.50;;;;;;5066945;28;20116;-70
2021/10/20 04:02:47;;;;;;;3.85;0.80;;;25.10;52.40;;;;;;5068433;28;20016;-70
2021/10/20 04:05:20;;;;;;;1.33;0.60;;;25.60;51.10;;;;;;5068098;28;20078;-67
2021/10/20 04:07:50;;;;;;;1.60;0.65;;;26.00;50.60;;;;;;5061936;28;20403;-68
2021/10/20 04:10:20;;;;;;;0.60;0.43;;;26.20;48.20;;;;;;5065523;28;20409;-68
2021/10/20 04:12:48;;;;;;;2.38;0.70;;;26.80;50.10;;;;;;5068026;28;20375;-69
2021/10/20 04:15:16;;;;;;;1.42;0.60;;;27.20;46.40;;;;;;5069019;28;20182;-68
2021/10/20 04:17:43;;;;;;;3.25;0.80;;;27.10;46.50;;;;;;5069174;28;20025;-70
2021/10/20 04:20:16;;;;;;;0.85;0.30;;;26.80;47.50;;;;;;5068398;28;20531;-68
2021/10/20 04:22:43;;;;;;;1.65;0.50;;;27.00;46.60;;;;;;5069209;28;20519;-70
2021/10/20 04:25:11;;;;;;;1.73;0.85;;;27.40;47.80;;;;;;5067730;28;20197;-71
2021/10/20 04:27:39;;;;;;;2.20;0.90;;;27.70;49.00;;;;;;5067649;28;20021;-68
2021/10/20 04:30:09;;;;;;;2.75;0.50;;;27.30;48.50;;;;;;5061566;28;20035;-69
2021/10/20 04:32:36;;;;;;;2.30;0.68;;;26.50;48.20;;;;;;5060308;28;20055;-70
2021/10/20 04:35:04;;;;;;;3.65;0.63;;;25.40;50.10;;;;;;5066222;28;20085;-68
2021/10/20 04:37:31;;;;;;;2.25;0.80;;;25.40;50.50;;;;;;5068818;28;20013;-70
2021/10/20 04:39:59;;;;;;;1.35;0.50;;;25.80;52.00;;;;;;5065083;28;20123;-68
2021/10/20 04:42:27;;;;;;;1.33;0.60;;;25.80;50.80;;;;;;5078867;28;20074;-70
2021/10/20 04:44:55;;;;;;;1.65;0.85;;;25.40;52.20;;;;;;5065954;28;20041;-71
2021/10/20 04:47:22;;;;;;;1.23;0.77;;;25.60;53.70;;;;;;5060295;28;20057;-68
2021/10/20 04:49:50;;;;;;;2.72;0.98;;;25.50;53.50;;;;;;5062120;28;20494;-70
2021/10/20 04:52:21;;;;;;;4.70;2.67;;;25.40;53.50;;;;;;5059174;28;20036;-69
2021/10/20 04:54:49;;;;;;;3.83;0.82;;;25.40;53.20;;;;;;5061200;28;20436;-67
2021/10/20 04:57:17;;;;;;;1.85;0.75;;;25.30;53.90;;;;;;5061594;28;20375;-69
2021/10/20 04:59:44;;;;;;;1.30;0.68;;;25.80;52.70;;;;;;5061682;28;20422;-67
2021/10/20 05:02:11;;;;;;;2.55;0.90;;;26.10;51.10;;;;;;5061225;28;20025;-68
2021/10/20 05:04:38;;;;;;;2.63;0.55;;;26.40;50.50;;;;;;5062894;28;20077;-69
2021/10/20 05:07:04;;;;;;;3.05;0.50;;;26.60;49.70;;;;;;5062046;28;20079;-66
2021/10/20 05:09:31;;;;;;;1.45;0.55;;;26.50;49.70;;;;;;5062961;28;20036;-69
2021/10/20 05:11:58;;;;;;;2.05;0.60;;;25.60;51.30;;;;;;5062186;28;20466;-68
2021/10/20 05:14:27;;;;;;;1.52;0.70;;;25.00;53.80;;;;;;5061848;28;20395;-69
2021/10/20 05:16:53;;;;;;;1.02;0.50;;;25.40;52.40;;;;;;5061986;28;20029;-68
2021/10/20 05:19:20;;;;;;;3.33;0.68;;;25.50;51.70;;;;;;5061261;28;20034;-68
2021/10/20 05:21:47;;;;;;;3.13;0.73;;;25.70;51.80;;;;;;5060636;28;20082;-68
2021/10/20 05:24:14;;;;;;;6.45;0.90;;;26.00;50.30;;;;;;5062061;28;20074;-65
2021/10/20 05:26:41;;;;;;;1.55;0.70;;;26.40;50.60;;;;;;5061421;28;20429;-64
2021/10/20 05:29:08;;;;;;;1.35;0.85;;;26.80;49.20;;;;;;5060202;28;20028;-67
2021/10/20 05:31:35;;;;;;;2.08;0.50;;;26.90;48.00;;;;;;5061254;28;20082;-65
2021/10/20 05:34:02;;;;;;;1.23;0.70;;;26.80;46.90;;;;;;5060135;28;20036;-66
2021/10/20 05:36:29;;;;;;;2.42;0.73;;;26.50;48.60;;;;;;5059508;28;20106;-69
2021/10/20 05:38:56;;;;;;;3.30;0.82;;;26.20;51.20;;;;;;4710109;28;10000648;-64
2021/10/20 05:41:23;;;;;;;2.30;0.60;;;26.10;52.50;;;;;;5060030;28;20390;-62
2021/10/20 05:43:50;;;;;;;2.97;0.80;;;25.50;51.70;;;;;;5061170;28;20048;-65
2021/10/20 05:46:17;;;;;;;1.08;0.50;;;25.30;52.30;;;;;;5061293;28;20352;-65
2021/10/20 05:48:44;;;;;;;2.00;0.60;;;25.80;53.10;;;;;;5060227;28;20500;-64
2021/10/20 05:51:11;;;;;;;2.15;0.85;;;26.10;51.20;;;;;;5058392;28;20024;-61
2021/10/20 05:53:38;;;;;;;2.15;0.57;;;26.00;52.80;;;;;;5060376;28;20060;-65
2021/10/20 05:56:06;;;;;;;1.73;0.40;;;25.90;52.80;;;;;;5060284;28;20059;-64
2021/10/20 05:58:33;;;;;;;1.80;0.70;;;26.00;53.20;;;;;;5064188;28;20047;-64
2021/10/20 06:01:00;;;;;;;2.25;0.68;;;26.50;53.20;;;;;;5065780;28;20028;-64
2021/10/20 06:03:27;;;;;;;2.60;0.73;;;27.00;50.70;;;;;;5065988;28;20355;-63
2021/10/20 06:05:54;;;;;;;1.98;0.75;;;27.20;50.00;;;;;;5069283;28;20107;-65
2021/10/20 06:08:21;;;;;;;1.42;0.57;;;26.90;51.50;;;;;;5069962;28;20039;-65
2021/10/20 06:10:48;;;;;;;2.03;0.60;;;26.50;52.90;;;;;;5069854;28;20064;-64
2021/10/20 06:13:15;;;;;;;4.22;0.90;;;26.10;53.00;;;;;;5068013;28;20032;-65
2021/10/20 06:15:41;;;;;;;2.20;0.80;;;25.40;55.10;;;;;;5064449;28;20036;-67
2021/10/20 06:18:09;;;;;;;4.80;1.05;;;25.60;54.60;;;;;;5069572;28;20417;-63
2021/10/20 06:20:36;;;;;;;1.23;0.63;;;25.50;55.50;;;;;;5067977;28;20024;-66
2021/10/20 06:23:03;;;;;;;1.73;0.60;;;25.40;56.00;;;;;;5069160;28;20542;-63
2021/10/20 06:25:31;;;;;;;4.90;0.80;;;25.90;55.00;;;;;;5069371;28;20017;-67
2021/10/20 06:27:58;;;;;;;1.65;0.65;;;26.10;54.50;;;;;;5062747;28;20463;-65
2021/10/20 06:30:25;;;;;;;1.60;0.77;;;26.40;52.80;;;;;;5063443;28;20067;-64
2021/10/20 06:32:52;;;;;;;1.52;0.70;;;26.10;51.30;;;;;;5063732;28;20078;-68
2021/10/20 06:35:19;;;;;;;1.60;0.70;;;26.30;51.00;;;;;;5064348;28;20033;-66
2021/10/20 06:37:51;;;;;;;1.83;0.65;;;26.50;50.60;;;;;;5070063;28;20052;-71
2021/10/20 06:40:18;;;;;;;2.88;0.63;;;26.70;50.70;;;;;;5067515;28;20120;-67
2021/10/20 06:42:45;;;;;;;2.78;0.57;;;26.90;50.50;;;;;;5069737;28;20125;-69
2021/10/20 06:45:12;;;;;;;1.42;0.50;;;27.20;50.00;;;;;;5064516;28;20060;-67
2021/10/20 06:47:39;;;;;;;1.70;0.60;;;27.30;50.00;;;;;;5068644;28;20344;-64
2021/10/20 06:50:06;;;;;;;2.38;0.50;;;27.10;51.70;;;;;;5067424;28;20108;-64
2021/10/20 06:52:33;;;;;;;1.95;0.88;;;27.50;51.30;;;;;;5068946;28;20024;-66
2021/10/20 06:55:00;;;;;;;1.45;0.80;;;27.80;51.00;;;;;;5068898;28;20028;-65
2021/10/20 06:57:27;;;;;;;1.38;0.68;;;28.00;51.20;;;;;;5068221;28;20020;-65
2021/10/20 06:59:54;;;;;;;2.20;0.90;;;28.30;49.60;;;;;;5068042;28;20054;-70
2021/10/20 07:02:21;;;;;;;2.25;0.70;;;27.50;50.10;;;;;;5069246;28;20081;-65
2021/10/20 07:04:48;;;;;;;3.28;0.88;;;26.70;51.90;;;;;;5067991;28;20090;-66
2021/10/20 07:07:15;;;;;;;2.08;0.68;;;26.60;53.10;;;;;;5068638;28;20037;-64
2021/10/20 07:09:42;;;;;;;2.28;0.95;;;26.80;52.60;;;;;;5068094;28;20059;-76
2021/10/20 07:12:09;;;;;;;1.45;0.70;;;26.30;53.60;;;;;;5068285;28;20028;-65
2021/10/20 07:14:36;;;;;;;1.85;0.88;;;26.10;54.00;;;;;;5069171;28;20174;-69
2021/10/20 07:17:08;;;;;;;1.52;1.05;;;25.70;55.20;;;;;;5066592;28;20120;-72
2021/10/20 07:19:38;;;;;;;2.20;0.85;;;25.10;58.20;;;;;;5065938;28;20033;-65
2021/10/20 07:22:08;;;;;;;3.00;0.77;;;25.10;58.80;;;;;;5063603;28;20034;-67
2021/10/20 07:24:36;;;;;;;3.13;0.93;;;25.10;58.90;;;;;;5068568;28;20051;-66
2021/10/20 07:27:06;;;;;;;4.00;0.88;;;25.10;60.20;;;;;;5066278;28;20028;-74
2021/10/20 07:29:34;;;;;;;4.88;1.17;;;25.40;60.40;;;;;;5063606;28;20073;-68
2021/10/20 07:32:01;;;;;;;1.85;0.88;;;25.50;59.40;;;;;;5065542;28;20112;-63
2021/10/20 07:34:28;;;;;;;3.20;0.90;;;25.50;58.80;;;;;;5064094;28;20482;-67
2021/10/20 07:36:55;;;;;;;3.83;0.80;;;25.10;59.10;;;;;;5061065;28;20466;-71
2021/10/20 07:39:29;;;;;;;2.40;0.85;;;24.80;59.70;;;;;;5060608;28;20032;-65
2021/10/20 07:41:56;;;;;;;1.48;0.73;;;24.60;60.50;;;;;;5066689;28;20029;-76
2021/10/20 07:44:23;;;;;;;2.35;1.00;;;24.40;61.50;;;;;;5060749;28;20028;-68
2021/10/20 07:46:59;;;;;;;2.72;1.00;;;24.10;62.20;;;;;;5055411;28;20028;-63
2021/10/20 07:49:29;;;;;;;2.90;0.90;;;23.80;63.90;;;;;;5061342;28;20024;-73
2021/10/20 07:51:57;;;;;;;4.75;1.33;;;23.50;66.30;;;;;;5064848;28;20028;-72
2021/10/20 07:54:27;;;;;;;2.30;0.90;;;22.90;67.40;;;;;;5057634;28;20048;-70
2021/10/20 07:56:54;;;;;;;6.57;1.20;;;22.00;70.90;;;;;;5063203;28;20038;-69
2021/10/20 07:59:25;;;;;;;2.50;0.80;;;21.30;74.90;;;;;;5061785;28;20032;-65
2021/10/20 08:01:54;;;;;;;3.38;1.23;;;20.90;77.90;;;;;;5061926;28;20049;-66
2021/10/20 08:04:21;;;;;;;3.42;1.08;;;20.50;81.00;;;;;;5061010;28;20020;-66
2021/10/20 08:06:48;;;;;;;2.00;0.95;;;20.20;84.80;;;;;;5063460;28;20467;-75
2021/10/20 08:09:15;;;;;;;4.05;1.92;;;20.00;86.90;;;;;;5065707;28;20020;-74
2021/10/20 08:11:42;;;;;;;5.10;1.05;;;19.80;88.60;;;;;;5063440;28;20085;-64
2021/10/20 08:14:09;;;;;;;4.68;2.20;;;19.80;89.00;;;;;;5066131;28;20166;-68
2021/10/20 08:16:37;;;;;;;3.63;1.30;;;19.50;90.50;;;;;;5063250;28;20107;-71
2021/10/20 08:19:04;;;;;;;4.35;1.65;;;19.30;91.60;;;;;;5062056;28;20032;-75
2021/10/20 08:21:31;;;;;;;4.13;1.25;;;19.10;92.60;;;;;;5059160;28;20028;-67
2021/10/20 08:23:58;;;;;;;3.42;1.20;;;19.00;93.20;;;;;;5066184;28;20029;-73
2021/10/20 08:26:25;;;;;;;3.22;1.13;;;18.90;93.80;;;;;;5066603;28;20201;-70
2021/10/20 08:28:52;;;;;;;3.30;1.08;;;18.80;94.60;;;;;;5065210;28;20026;-70
2021/10/20 08:31:18;;;;;;;4.40;1.27;;;18.70;95.00;;;;;;5059469;28;20032;-69
2021/10/20 08:33:45;;;;;;;4.70;1.10;;;18.60;95.60;;;;;;5060123;28;20029;-66
2021/10/20 08:36:12;;;;;;;4.43;1.63;;;18.60;96.10;;;;;;5057942;28;20017;-74
2021/10/20 08:38:39;;;;;;;4.40;1.15;;;18.50;97.10;;;;;;5058195;28;20067;-74
2021/10/20 08:41:09;;;;;;;3.72;1.17;;;18.50;97.10;;;;;;5060604;28;20031;-71
2021/10/20 08:43:36;;;;;;;4.82;1.10;;;18.50;97.70;;;;;;5057294;28;20056;-71
2021/10/20 08:46:03;;;;;;;4.22;1.45;;;18.60;97.90;;;;;;5060578;28;20328;-69
2021/10/20 08:48:31;;;;;;;4.15;1.63;;;18.50;98.80;;;;;;5058883;28;20035;-66
2021/10/20 08:51:02;;;;;;;3.72;1.10;;;18.40;99.70;;;;;;5057790;28;20033;-65
2021/10/20 08:53:29;;;;;;;4.95;1.27;;;18.40;99.90;;;;;;5058284;28;20063;-69
2021/10/20 08:55:57;;;;;;;7.55;1.85;;;18.50;99.90;;;;;;5057698;28;20295;-69
2021/10/20 08:58:24;;;;;;;4.60;1.45;;;18.40;99.90;;;;;;5057307;28;20028;-69
2021/10/20 09:00:51;;;;;;;4.25;1.70;;;18.30;99.90;;;;;;5049953;28;20071;-70
2021/10/20 09:03:18;;;;;;;5.10;1.30;;;18.40;99.90;;;;;;5053514;28;20029;-67
2021/10/20 09:05:45;;;;;;;4.95;1.63;;;18.40;99.90;;;;;;5058430;28;20369;-69
2021/10/20 09:08:13;;;;;;;3.40;1.27;;;18.40;99.90;;;;;;5058473;28;20391;-69
2021/10/20 09:10:40;;;;;;;6.38;1.40;;;18.30;99.90;;;;;;5059281;28;20032;-70
2021/10/20 09:13:07;;;;;;;4.22;1.33;;;18.30;99.90;;;;;;5059230;28;20420;-69
2021/10/20 09:15:36;;;;;;;3.42;1.20;;;18.20;99.90;;;;;;5061738;28;20039;-67
2021/10/20 09:18:10;;;;;;;6.40;1.60;;;18.10;99.90;;;;;;5063969;28;20028;-70
2021/10/20 09:20:42;;;;;;;5.45;1.20;;;18.00;99.90;;;;;;5061669;28;20021;-66
2021/10/20 09:23:17;;;;;;;3.65;1.65;;;18.00;99.90;;;;;;5063705;28;20028;-74
2021/10/20 09:25:48;;;;;;;5.22;2.70;;;18.00;99.90;;;;;;5062875;28;20020;-67
2021/10/20 09:28:24;;;;;;;3.88;1.80;;;17.90;99.90;;;;;;5061223;28;20024;-69
2021/10/20 09:30:51;;;;;;;6.60;4.07;;;17.80;99.90;;;;;;5060414;28;20043;-68
2021/10/20 09:33:19;;;;;;;6.05;1.85;;;17.80;99.90;;;;;;5060253;28;20028;-71
2021/10/20 09:35:46;;;;;;;6.47;2.92;;;17.80;99.90;;;;;;5064031;28;20036;-66
2021/10/20 09:38:13;;;;;;;8.70;2.00;;;17.80;99.90;;;;;;5064351;28;20040;-67
2021/10/20 09:40:46;;;;;;;6.53;1.58;;;17.80;99.90;;;;;;5062920;28;20056;-68
2021/10/20 09:43:15;;;;;;;7.13;1.95;;;17.70;99.90;;;;;;5062670;28;20478;-69
2021/10/20 09:45:45;;;;;;;5.75;2.08;;;17.60;99.90;;;;;;5062350;28;20064;-71
2021/10/20 09:48:20;;;;;;;5.18;2.13;;;17.60;99.90;;;;;;5059617;28;20448;-70
2021/10/20 09:51:10;;;;;;;6.68;2.55;;;17.60;99.90;;;;;;5054282;28;20317;-72
2021/10/20 09:53:40;;;;;;;5.78;2.50;;;17.60;99.90;;;;;;5055945;28;20044;-63
2021/10/20 09:56:34;;;;;;;7.80;1.80;;;17.60;99.90;;;;;;5057289;28;20440;-65
2021/10/20 09:59:01;;;;;;;6.40;1.88;;;17.50;99.90;;;;;;5059290;28;20487;-63
2021/10/20 10:01:30;;;;;;;7.43;2.00;;;17.40;99.90;;;;;;5059109;28;20065;-67
2021/10/20 10:04:02;;;;;;;4.57;1.80;;;17.30;99.90;;;;;;5061746;28;20017;-76
2021/10/20 10:06:30;;;;;;;6.18;1.60;;;17.20;99.90;;;;;;5058954;28;20103;-75
2021/10/20 10:08:57;;;;;;;5.40;1.63;;;17.10;99.90;;;;;;5055986;28;20036;-71
2021/10/20 10:11:24;;;;;;;5.22;1.30;;;;;;;;;;5058140;28;20040;-73
2021/10/20 10:14:02;;;;;;;7.28;2.00;;;16.80;99.90;;;;;;5058124;28;20159;-77
2021/10/20 10:16:32;;;;;;;7.03;1.83;;;16.60;99.90;;;;;;5057430;28;20032;-74
2021/10/20 10:19:00;;;;;;;4.78;1.67;;;16.50;99.90;;;;;;5058415;28;20355;-69
2021/10/20 10:21:33;;;;;;;6.07;1.85;;;16.50;99.90;;;;;;5051627;28;20060;-67
2021/10/20 10:24:03;;;;;;;8.85;1.83;;;16.40;99.90;;;;;;5055862;28;20352;-73
2021/10/20 10:26:54;;;;;;;1.95;1.20;;;16.40;99.90;;;;;;5056066;28;20308;-69
2021/10/20 10:29:21;;;;;;;4.35;1.60;;;16.30;99.90;;;;;;5055261;28;20287;-64
2021/10/20 10:31:50;;;;;;;5.80;1.80;;;16.30;99.90;;;;;;5056719;28;20333;-69
2021/10/20 10:34:40;;;;;;;6.55;1.70;;;16.20;99.90;;;;;;5060119;28;20032;-65
2021/10/20 10:37:07;;;;;;;6.22;1.98;;;16.10;99.90;;;;;;5045100;28;20032;-65
2021/10/20 10:39:34;;;;;;;6.45;1.70;;;15.90;99.90;;;;;;5057685;28;20032;-70
2021/10/20 10:42:05;;;;;;;6.75;1.95;;;15.90;99.90;;;;;;5056960;28;20028;-65
2021/10/20 10:44:51;;;;;;;4.88;1.67;;;15.80;99.90;;;;;;5059636;28;20188;-69
2021/10/20 10:47:21;;;;;;;4.80;1.70;;;15.90;99.90;;;;;;5063550;28;20052;-68
2021/10/20 10:49:54;;;;;;;9.80;1.77;;;15.90;99.90;;;;;;5063932;28;20163;-67
2021/10/20 10:52:43;;;;;;;5.03;1.85;;;15.80;99.90;;;;;;5064319;28;20024;-71
2021/10/20 10:55:20;;;;;;;10.10;2.55;;;15.70;99.90;;;;;;5064669;28;20033;-64
2021/10/20 10:58:14;;;;;;;6.53;2.03;;;15.60;99.90;;;;;;5065611;28;20028;-66
2021/10/20 11:00:48;;;;;;;6.90;1.88;;;15.50;99.90;;;;;;5065594;28;20047;-69
2021/10/20 11:03:21;;;;;;;5.10;1.77;;;15.50;99.90;;;;;;5063473;28;20056;-73
2021/10/20 11:06:01;;;;;;;7.50;1.83;;;15.40;99.90;;;;;;5065607;28;20119;-64
2021/10/20 11:08:29;;;;;;;6.72;2.58;;;15.30;99.90;;;;;;5066036;28;20536;-69
2021/10/20 11:10:57;;;;;;;5.25;1.90;;;15.30;99.90;;;;;;5066792;28;20029;-74
2021/10/20 11:13:25;;;;;;;6.65;2.30;;;15.30;99.90;;;;;;5066394;28;20032;-69
2021/10/20 11:15:52;;;;;;;5.90;2.03;;;15.30;99.90;;;;;;5068400;28;20047;-69
2021/10/20 11:18:21;;;;;;;6.03;2.15;;;15.30;99.90;;;;;;5072180;28;20025;-64
2021/10/20 11:20:48;;;;;;;4.53;2.08;;;15.30;99.90;;;;;;5072771;28;20483;-70
2021/10/20 11:23:18;;;;;;;6.60;1.70;;;15.20;99.90;;;;;;5072953;28;20023;-69
2021/10/20 11:25:47;;;;;;;2.95;2.05;;;15.10;99.90;;;;;;5070389;28;20372;-64
2021/10/20 11:28:15;;;;;;;6.63;2.47;;;15.00;99.90;;;;;;5071378;28;20027;-66
2021/10/20 11:30:42;;;;;;;7.55;2.75;;;14.90;99.90;;;;;;5072438;28;20051;-68
2021/10/20 11:33:13;;;;;;;9.13;2.95;;;14.90;99.90;;;;;;5070636;28;20024;-70
2021/10/20 11:35:40;;;;;;;6.95;2.03;;;14.90;99.90;;;;;;5072339;28;20028;-64
2021/10/20 11:38:15;;;;;;;6.22;1.67;;;14.90;99.90;;;;;;5071786;28;20025;-71
2021/10/20 11:40:48;;;;;;;7.75;2.10;;;15.00;99.90;;;;;;5072626;28;20025;-69
2021/10/20 11:43:26;;;;;;;5.15;1.95;;;15.00;99.90;;;;;;5072633;28;20031;-71
2021/10/20 11:45:53;;;;;;;12.27;1.98;;;14.90;99.90;;;;;;5071998;28;20115;-72
2021/10/20 11:48:24;;;;;;;8.52;2.17;;;14.90;99.90;;;;;;5066298;28;20028;-68
2021/10/20 11:50:56;;;;;;;8.63;2.15;;;15.00;99.90;;;;;;5072714;28;20012;-68
2021/10/20 11:53:24;;;;;;;8.40;2.20;;;15.00;99.90;;;;;;5066378;28;20044;-66
2021/10/20 11:55:58;;;;;;;6.65;1.90;;;15.00;99.90;;;;;;5070956;28;20037;-69
2021/10/20 11:58:28;;;;;;;8.75;2.50;;;15.00;99.90;;;;;;5072909;28;20070;-63
2021/10/20 12:01:02;;;;;;;6.38;2.22;;;15.00;99.90;;;;;;5071490;28;20534;-71
2021/10/20 12:03:38;;;;;;;6.15;1.73;;;14.90;99.90;;;;;;5071366;28;20098;-70
2021/10/20 12:06:08;;;;;;;11.20;2.50;;;14.80;99.90;;;;;;5070916;28;20035;-64
2021/10/20 12:08:43;;;;;;;5.70;1.77;;;14.90;99.90;;;;;;5070710;28;20028;-65
2021/10/20 12:11:10;;;;;;;6.90;1.70;;;14.80;99.90;;;;;;5071068;28;20020;-71
2021/10/20 12:13:38;;;;;;;4.53;2.00;;;14.80;99.90;;;;;;5066815;28;20028;-64
2021/10/20 12:16:11;;;;;;;9.73;2.05;;;14.80;99.90;;;;;;5071419;28;20490;-67
2021/10/20 12:18:43;;;;;;;6.47;1.85;;;14.80;99.90;;;;;;5066246;28;20025;-69
2021/10/20 12:21:13;;;;;;;6.25;1.70;;;14.70;99.90;;;;;;5070781;28;20385;-64
2021/10/20 12:23:45;;;;;;;4.10;1.65;;;14.70;99.90;;;;;;5071467;28;20024;-68
2021/10/20 12:26:12;;;;;;;4.40;1.80;;;14.60;99.90;;;;;;5070346;28;20024;-69
2021/10/20 12:28:40;;;;;;;6.75;2.58;;;14.50;99.90;;;;;;5071552;28;20024;-63
2021/10/20 12:31:16;;;;;;;3.80;1.75;;;14.40;99.90;;;;;;5071414;28;20017;-69
2021/10/20 12:33:47;;;;;;;4.15;1.67;;;14.30;99.90;;;;;;5066901;28;20064;-64
2021/10/20 12:36:17;;;;;;;5.70;2.25;;;14.10;99.90;;;;;;5062472;28;20104;-64
2021/10/20 12:38:45;;;;;;;8.90;1.83;;;14.10;99.90;;;;;;5067522;28;20032;-69
2021/10/20 12:41:30;;;;;;;4.32;1.60;;;14.00;99.90;;;;;;5070813;28;20454;-68
2021/10/20 12:44:00;;;;;;;4.88;1.92;;;13.90;99.90;;;;;;5070551;28;20424;-68
2021/10/20 12:46:29;;;;;;;3.55;1.73;;;13.90;99.90;;;;;;5069358;28;20111;-68
2021/10/20 12:48:56;;;;;;;6.70;1.60;;;13.80;99.90;;;;;;5071387;28;20101;-68
2021/10/20 12:51:29;;;;;;;4.30;2.08;;;13.80;99.90;;;;;;5070848;28;20075;-63
2021/10/20 12:54:04;;;;;;;6.43;2.05;;;13.80;99.90;;;;;;5075403;23;20040;-63
2021/10/20 12:56:32;;;;;;;15.07;2.55;;;13.70;99.90;;;;;;5067498;28;20078;-69